sensor_id;sensor_type;location;lat;lon;timestamp;temperature;humidity
9849;DHT22;4963;51.444;6.528;2023-04-30T00:01:53;9.80;99.90
9849;DHT22;4963;51.444;6.528;2023-04-30T00:04:20;9.90;99.90
9849;DHT22;4963;51.444;6.528;2023-04-30T00:06:49;9.80;99.90
9849;DHT22;4963;51.444;6.528;2023-04-30T00:09:15;9.80;99.90
9849;DHT22;4963;51.444;6.528;2023-04-30T00:11:42;9.70;99.90
9849;DHT22;4963;51.444;6.528;2023-04-30T00:14:09;9.60;99.90
9849;DHT22;4963;51.444;6.528;2023-04-30T00:16:36;9.60;99.90
9849;DHT22;4963;51.444;6.528;2023-04-30T00:19:03;9.80;99.90
9849;DHT22;4963;51.444;6.528;2023-04-30T00:21:29;9.50;99.90
9849;DHT22;4963;51.444;6.528;2023-04-30T00:23:58;9.70;99.90
9849;DHT22;4963;51.444;6.528;2023-04-30T00:26:25;9.40;99.90
9849;DHT22;4963;51.444;6.528;2023-04-30T00:28:52;9.50;99.90
9849;DHT22;4963;51.444;6.528;2023-04-30T00:31:18;9.40;99.90
9849;DHT22;4963;51.444;6.528;2023-04-30T00:33:45;9.50;99.90
9849;DHT22;4963;51.444;6.528;2023-04-30T00:36:12;9.40;99.90
9849;DHT22;4963;51.444;6.528;2023-04-30T00:38:51;9.50;99.90
9849;DHT22;4963;51.444;6.528;2023-04-30T00:41:20;9.50;99.90
9849;DHT22;4963;51.444;6.528;2023-04-30T00:43:48;9.40;99.90
9849;DHT22;4963;51.444;6.528;2023-04-30T00:46:15;9.50;99.90
9849;DHT22;4963;51.444;6.528;2023-04-30T00:48:42;9.30;99.90
9849;DHT22;4963;51.444;6.528;2023-04-30T00:51:08;9.30;99.90
9849;DHT22;4963;51.444;6.528;2023-04-30T00:53:36;9.20;99.90
9849;DHT22;4963;51.444;6.528;2023-04-30T00:58:33;9.30;99.90
9849;DHT22;4963;51.444;6.528;2023-04-30T01:01:00;9.30;99.90
9849;DHT22;4963;51.444;6.528;2023-04-30T01:03:28;9.30;99.90
9849;DHT22;4963;51.444;6.528;2023-04-30T01:05:55;9.20;99.90
9849;DHT22;4963;51.444;6.528;2023-04-30T01:08:21;9.20;99.90
9849;DHT22;4963;51.444;6.528;2023-04-30T01:10:55;9.30;99.90
9849;DHT22;4963;51.444;6.528;2023-04-30T01:13:30;9.20;99.90
9849;DHT22;4963;51.444;6.528;2023-04-30T01:16:08;9.10;99.90
9849;DHT22;4963;51.444;6.528;2023-04-30T01:18:40;9.30;99.90
9849;DHT22;4963;51.444;6.528;2023-04-30T01:21:08;9.10;99.90
9849;DHT22;4963;51.444;6.528;2023-04-30T01:23:52;9.00;99.90
9849;DHT22;4963;51.444;6.528;2023-04-30T01:26:37;9.10;99.90
9849;DHT22;4963;51.444;6.528;2023-04-30T01:31:42;8.90;99.90
9849;DHT22;4963;51.444;6.528;2023-04-30T01:34:09;8.90;99.90
9849;DHT22;4963;51.444;6.528;2023-04-30T01:36:48;9.10;99.90
9849;DHT22;4963;51.444;6.528;2023-04-30T01:39:35;9.00;99.90
9849;DHT22;4963;51.444;6.528;2023-04-30T01:42:09;9.10;99.90
9849;DHT22;4963;51.444;6.528;2023-04-30T01:44:57;9.10;99.90
9849;DHT22;4963;51.444;6.528;2023-04-30T01:47:37;9.10;99.90
9849;DHT22;4963;51.444;6.528;2023-04-30T01:50:12;9.10;99.90
9849;DHT22;4963;51.444;6.528;2023-04-30T02:15:02;8.80;99.90
9849;DHT22;4963;51.444;6.528;2023-04-30T03:11:43;8.50;99.90
9849;DHT22;4963;51.444;6.528;2023-04-30T03:14:10;8.50;99.90
9849;DHT22;4963;51.444;6.528;2023-04-30T03:19:04;8.30;99.90
9849;DHT22;4963;51.444;6.528;2023-04-30T03:21:31;8.40;99.90
9849;DHT22;4963;51.444;6.528;2023-04-30T03:23:58;8.30;99.90
9849;DHT22;4963;51.444;6.528;2023-04-30T03:26:26;8.20;99.90
9849;DHT22;4963;51.444;6.528;2023-04-30T03:28:53;8.30;99.90
9849;DHT22;4963;51.444;6.528;2023-04-30T03:31:20;8.20;99.90
9849;DHT22;4963;51.444;6.528;2023-04-30T03:33:47;8.20;99.90
9849;DHT22;4963;51.444;6.528;2023-04-30T03:36:14;8.20;99.90
9849;DHT22;4963;51.444;6.528;2023-04-30T03:43:37;8.10;99.90
9849;DHT22;4963;51.444;6.528;2023-04-30T03:46:04;8.10;99.90
9849;DHT22;4963;51.444;6.528;2023-04-30T04:03:54;8.00;99.90
9849;DHT22;4963;51.444;6.528;2023-04-30T04:06:21;8.10;99.90
9849;DHT22;4963;51.444;6.528;2023-04-30T04:08:48;8.10;99.90
9849;DHT22;4963;51.444;6.528;2023-04-30T04:11:15;8.10;99.90
9849;DHT22;4963;51.444;6.528;2023-04-30T04:13:42;8.00;99.90
9849;DHT22;4963;51.444;6.528;2023-04-30T04:16:10;8.00;99.90
9849;DHT22;4963;51.444;6.528;2023-04-30T04:18:37;7.90;99.90
9849;DHT22;4963;51.444;6.528;2023-04-30T04:21:03;7.90;99.90
9849;DHT22;4963;51.444;6.528;2023-04-30T04:23:31;7.90;99.90
9849;DHT22;4963;51.444;6.528;2023-04-30T04:25:57;7.80;99.90
9849;DHT22;4963;51.444;6.528;2023-04-30T04:28:24;7.90;99.90
9849;DHT22;4963;51.444;6.528;2023-04-30T04:30:51;7.50;99.90
9849;DHT22;4963;51.444;6.528;2023-04-30T04:33:20;7.80;99.90
9849;DHT22;4963;51.444;6.528;2023-04-30T04:35:46;7.90;99.90
9849;DHT22;4963;51.444;6.528;2023-04-30T04:38:14;7.70;99.90
9849;DHT22;4963;51.444;6.528;2023-04-30T04:40:44;7.90;99.90
9849;DHT22;4963;51.444;6.528;2023-04-30T04:43:16;7.90;99.90
9849;DHT22;4963;51.444;6.528;2023-04-30T04:45:42;7.80;99.90
9849;DHT22;4963;51.444;6.528;2023-04-30T04:48:09;7.80;99.90
9849;DHT22;4963;51.444;6.528;2023-04-30T04:50:37;7.80;99.90
9849;DHT22;4963;51.444;6.528;2023-04-30T04:53:04;7.50;99.90
9849;DHT22;4963;51.444;6.528;2023-04-30T05:00:26;8.00;99.90
9849;DHT22;4963;51.444;6.528;2023-04-30T05:02:53;8.00;99.90
9849;DHT22;4963;51.444;6.528;2023-04-30T05:05:19;8.20;99.90
9849;DHT22;4963;51.444;6.528;2023-04-30T05:07:47;8.30;99.90
9849;DHT22;4963;51.444;6.528;2023-04-30T05:10:16;8.40;99.90
9849;DHT22;4963;51.444;6.528;2023-04-30T05:12:43;8.50;99.90
9849;DHT22;4963;51.444;6.528;2023-04-30T05:17:37;8.80;99.90
9849;DHT22;4963;51.444;6.528;2023-04-30T05:22:33;9.40;99.90
9849;DHT22;4963;51.444;6.528;2023-04-30T05:27:29;10.00;99.90
9849;DHT22;4963;51.444;6.528;2023-04-30T05:32:23;10.90;99.90
9849;DHT22;4963;51.444;6.528;2023-04-30T05:34:50;11.40;99.90
9849;DHT22;4963;51.444;6.528;2023-04-30T05:37:17;11.90;99.90
9849;DHT22;4963;51.444;6.528;2023-04-30T05:39:45;12.00;99.90
9849;DHT22;4963;51.444;6.528;2023-04-30T05:44:40;12.50;99.90
9849;DHT22;4963;51.444;6.528;2023-04-30T05:47:07;12.80;99.90
9849;DHT22;4963;51.444;6.528;2023-04-30T05:49:34;13.00;99.90
9849;DHT22;4963;51.444;6.528;2023-04-30T05:52:01;13.00;99.90
9849;DHT22;4963;51.444;6.528;2023-04-30T05:54:28;12.80;99.90
9849;DHT22;4963;51.444;6.528;2023-04-30T05:56:55;12.90;99.90
9849;DHT22;4963;51.444;6.528;2023-04-30T05:59:23;13.20;99.90
9849;DHT22;4963;51.444;6.528;2023-04-30T06:01:50;13.20;99.90
9849;DHT22;4963;51.444;6.528;2023-04-30T06:04:17;13.50;99.90
9849;DHT22;4963;51.444;6.528;2023-04-30T06:06:44;13.90;99.90
9849;DHT22;4963;51.444;6.528;2023-04-30T06:09:11;14.20;99.90
9849;DHT22;4963;51.444;6.528;2023-04-30T06:11:37;14.30;99.90
9849;DHT22;4963;51.444;6.528;2023-04-30T06:16:33;14.40;99.90
9849;DHT22;4963;51.444;6.528;2023-04-30T06:19:00;14.50;99.90
9849;DHT22;4963;51.444;6.528;2023-04-30T06:23:54;14.60;99.90
9849;DHT22;4963;51.444;6.528;2023-04-30T06:26:21;14.70;99.90
9849;DHT22;4963;51.444;6.528;2023-04-30T06:28:48;14.80;99.90
9849;DHT22;4963;51.444;6.528;2023-04-30T06:36:10;14.30;99.90
9849;DHT22;4963;51.444;6.528;2023-04-30T06:38:37;14.50;99.90
9849;DHT22;4963;51.444;6.528;2023-04-30T06:43:32;14.70;99.90
9849;DHT22;4963;51.444;6.528;2023-04-30T06:53:22;13.80;99.90
9849;DHT22;4963;51.444;6.528;2023-04-30T06:55:49;14.10;99.90
9849;DHT22;4963;51.444;6.528;2023-04-30T06:58:17;14.30;99.90
9849;DHT22;4963;51.444;6.528;2023-04-30T07:27:51;16.50;99.90
9849;DHT22;4963;51.444;6.528;2023-04-30T09:31:46;17.10;99.90
9849;DHT22;4963;51.444;6.528;2023-04-30T09:34:13;17.50;99.90
9849;DHT22;4963;51.444;6.528;2023-04-30T09:36:51;17.40;99.90
9849;DHT22;4963;51.444;6.528;2023-04-30T09:39:20;17.40;99.90
9849;DHT22;4963;51.444;6.528;2023-04-30T09:49:23;17.40;99.90
9849;DHT22;4963;51.444;6.528;2023-04-30T09:51:54;17.50;99.90
9849;DHT22;4963;51.444;6.528;2023-04-30T09:54:24;17.60;99.90
9849;DHT22;4963;51.444;6.528;2023-04-30T09:56:53;17.60;99.90
9849;DHT22;4963;51.444;6.528;2023-04-30T09:59:21;17.60;99.90
9849;DHT22;4963;51.444;6.528;2023-04-30T10:01:57;17.50;99.90
9849;DHT22;4963;51.444;6.528;2023-04-30T13:20:18;18.00;99.90
9849;DHT22;4963;51.444;6.528;2023-04-30T13:22:45;18.20;99.90
9849;DHT22;4963;51.444;6.528;2023-04-30T13:25:12;18.20;99.90
9849;DHT22;4963;51.444;6.528;2023-04-30T13:27:38;18.20;99.90
9849;DHT22;4963;51.444;6.528;2023-04-30T13:30:06;18.10;99.90
9849;DHT22;4963;51.444;6.528;2023-04-30T13:32:33;18.00;99.90
9849;DHT22;4963;51.444;6.528;2023-04-30T13:35:02;17.90;99.90
9849;DHT22;4963;51.444;6.528;2023-04-30T13:37:29;18.10;99.90
9849;DHT22;4963;51.444;6.528;2023-04-30T13:39:56;18.10;99.90
9849;DHT22;4963;51.444;6.528;2023-04-30T13:42:25;18.00;99.90
9849;DHT22;4963;51.444;6.528;2023-04-30T13:44:52;17.80;99.90
9849;DHT22;4963;51.444;6.528;2023-04-30T13:47:18;17.60;99.90
9849;DHT22;4963;51.444;6.528;2023-04-30T13:49:45;17.70;99.90
9849;DHT22;4963;51.444;6.528;2023-04-30T13:52:14;17.60;99.90
9849;DHT22;4963;51.444;6.528;2023-04-30T13:54:40;17.60;99.90
9849;DHT22;4963;51.444;6.528;2023-04-30T13:57:07;17.80;99.90
9849;DHT22;4963;51.444;6.528;2023-04-30T13:59:34;17.90;99.90
9849;DHT22;4963;51.444;6.528;2023-04-30T14:02:01;17.80;99.90
9849;DHT22;4963;51.444;6.528;2023-04-30T14:04:28;17.70;99.90
9849;DHT22;4963;51.444;6.528;2023-04-30T14:06:55;17.50;99.90
9849;DHT22;4963;51.444;6.528;2023-04-30T14:09:23;17.60;99.90
9849;DHT22;4963;51.444;6.528;2023-04-30T14:11:51;17.70;99.90
9849;DHT22;4963;51.444;6.528;2023-04-30T14:14:20;17.90;99.90
9849;DHT22;4963;51.444;6.528;2023-04-30T14:16:47;18.00;99.90
9849;DHT22;4963;51.444;6.528;2023-04-30T14:19:14;18.00;99.90
9849;DHT22;4963;51.444;6.528;2023-04-30T14:21:41;18.00;99.90
9849;DHT22;4963;51.444;6.528;2023-04-30T14:24:08;17.90;99.90
9849;DHT22;4963;51.444;6.528;2023-04-30T14:26:38;18.10;99.90
9849;DHT22;4963;51.444;6.528;2023-04-30T14:29:06;17.90;99.90
9849;DHT22;4963;51.444;6.528;2023-04-30T14:31:33;17.90;99.90
9849;DHT22;4963;51.444;6.528;2023-04-30T14:34:00;17.90;99.90
9849;DHT22;4963;51.444;6.528;2023-04-30T14:36:27;17.80;99.90
9849;DHT22;4963;51.444;6.528;2023-04-30T14:38:54;17.90;99.90
9849;DHT22;4963;51.444;6.528;2023-04-30T14:41:22;17.90;99.90
9849;DHT22;4963;51.444;6.528;2023-04-30T14:43:50;18.00;99.90
9849;DHT22;4963;51.444;6.528;2023-04-30T14:46:18;17.90;99.90
9849;DHT22;4963;51.444;6.528;2023-04-30T14:48:44;18.10;99.90
9849;DHT22;4963;51.444;6.528;2023-04-30T14:51:11;18.10;99.90
9849;DHT22;4963;51.444;6.528;2023-04-30T14:53:38;18.10;99.90
9849;DHT22;4963;51.444;6.528;2023-04-30T14:56:05;17.70;99.90
9849;DHT22;4963;51.444;6.528;2023-04-30T14:58:32;18.10;99.90
9849;DHT22;4963;51.444;6.528;2023-04-30T15:01:00;18.10;99.90
9849;DHT22;4963;51.444;6.528;2023-04-30T15:03:27;18.00;99.90
9849;DHT22;4963;51.444;6.528;2023-04-30T15:05:55;18.00;99.90
9849;DHT22;4963;51.444;6.528;2023-04-30T15:08:22;18.00;99.90
9849;DHT22;4963;51.444;6.528;2023-04-30T15:10:49;18.00;99.90
9849;DHT22;4963;51.444;6.528;2023-04-30T15:13:15;17.90;99.90
9849;DHT22;4963;51.444;6.528;2023-04-30T15:15:42;18.00;99.90
9849;DHT22;4963;51.444;6.528;2023-04-30T15:18:12;17.90;99.90
9849;DHT22;4963;51.444;6.528;2023-04-30T15:20:40;17.80;99.90
9849;DHT22;4963;51.444;6.528;2023-04-30T19:29:28;15.00;98.80
9849;DHT22;4963;51.444;6.528;2023-04-30T19:31:56;15.00;99.90
9849;DHT22;4963;51.444;6.528;2023-04-30T19:34:23;15.00;99.90
9849;DHT22;4963;51.444;6.528;2023-04-30T19:36:50;15.10;98.80
9849;DHT22;4963;51.444;6.528;2023-04-30T19:39:17;15.10;98.70
9849;DHT22;4963;51.444;6.528;2023-04-30T19:45:04;14.90;98.80
9849;DHT22;4963;51.444;6.528;2023-04-30T19:47:31;14.80;99.70
9849;DHT22;4963;51.444;6.528;2023-04-30T19:49:58;14.70;99.40
9849;DHT22;4963;51.444;6.528;2023-04-30T19:52:25;14.70;99.60
9849;DHT22;4963;51.444;6.528;2023-04-30T19:54:52;14.60;99.90
9849;DHT22;4963;51.444;6.528;2023-04-30T19:57:19;14.50;99.90
9849;DHT22;4963;51.444;6.528;2023-04-30T19:59:46;14.50;99.90
9849;DHT22;4963;51.444;6.528;2023-04-30T20:02:14;14.40;99.90
9849;DHT22;4963;51.444;6.528;2023-04-30T20:04:41;14.40;99.90
9849;DHT22;4963;51.444;6.528;2023-04-30T20:07:07;14.30;99.90
9849;DHT22;4963;51.444;6.528;2023-04-30T20:09:34;14.40;99.90
9849;DHT22;4963;51.444;6.528;2023-04-30T20:12:01;14.30;99.90
9849;DHT22;4963;51.444;6.528;2023-04-30T20:14:28;14.30;99.90
9849;DHT22;4963;51.444;6.528;2023-04-30T20:16:55;14.30;99.90
9849;DHT22;4963;51.444;6.528;2023-04-30T20:19:24;14.30;99.90
9849;DHT22;4963;51.444;6.528;2023-04-30T20:21:51;14.30;99.90
9849;DHT22;4963;51.444;6.528;2023-04-30T20:24:18;14.30;99.90
9849;DHT22;4963;51.444;6.528;2023-04-30T20:26:46;14.30;99.90
9849;DHT22;4963;51.444;6.528;2023-04-30T20:29:13;14.30;99.90
9849;DHT22;4963;51.444;6.528;2023-04-30T20:31:39;14.20;99.90
9849;DHT22;4963;51.444;6.528;2023-04-30T20:34:06;14.20;99.90
9849;DHT22;4963;51.444;6.528;2023-04-30T20:36:34;14.20;99.90
9849;DHT22;4963;51.444;6.528;2023-04-30T20:39:01;14.20;99.90
9849;DHT22;4963;51.444;6.528;2023-04-30T20:41:28;14.10;99.90
9849;DHT22;4963;51.444;6.528;2023-04-30T20:43:55;14.00;99.90
9849;DHT22;4963;51.444;6.528;2023-04-30T20:46:24;14.00;99.90
9849;DHT22;4963;51.444;6.528;2023-04-30T20:48:52;13.90;99.90
9849;DHT22;4963;51.444;6.528;2023-04-30T20:51:25;13.90;99.90
9849;DHT22;4963;51.444;6.528;2023-04-30T20:53:54;13.80;99.90
9849;DHT22;4963;51.444;6.528;2023-04-30T20:56:21;13.90;99.90
9849;DHT22;4963;51.444;6.528;2023-04-30T20:58:47;13.80;99.90
9849;DHT22;4963;51.444;6.528;2023-04-30T21:01:14;13.80;99.90
9849;DHT22;4963;51.444;6.528;2023-04-30T21:03:41;13.80;99.90
9849;DHT22;4963;51.444;6.528;2023-04-30T21:06:08;13.70;99.90
9849;DHT22;4963;51.444;6.528;2023-04-30T21:08:35;13.70;99.90
9849;DHT22;4963;51.444;6.528;2023-04-30T21:11:03;13.70;99.90
9849;DHT22;4963;51.444;6.528;2023-04-30T21:13:30;13.70;99.90
9849;DHT22;4963;51.444;6.528;2023-04-30T21:15:57;13.70;99.90
9849;DHT22;4963;51.444;6.528;2023-04-30T21:18:24;13.70;99.90
9849;DHT22;4963;51.444;6.528;2023-04-30T21:20:52;13.70;99.90
9849;DHT22;4963;51.444;6.528;2023-04-30T21:23:20;13.70;99.90
9849;DHT22;4963;51.444;6.528;2023-04-30T21:25:47;13.70;99.90
9849;DHT22;4963;51.444;6.528;2023-04-30T21:28:15;13.70;99.90
9849;DHT22;4963;51.444;6.528;2023-04-30T21:30:42;13.70;99.90
9849;DHT22;4963;51.444;6.528;2023-04-30T21:33:09;13.70;99.90
9849;DHT22;4963;51.444;6.528;2023-04-30T21:35:37;13.70;99.90
9849;DHT22;4963;51.444;6.528;2023-04-30T21:38:04;13.70;99.90
9849;DHT22;4963;51.444;6.528;2023-04-30T21:40:31;13.60;99.90
9849;DHT22;4963;51.444;6.528;2023-04-30T21:42:58;13.60;99.90
9849;DHT22;4963;51.444;6.528;2023-04-30T21:45:26;13.60;99.90
9849;DHT22;4963;51.444;6.528;2023-04-30T21:47:53;13.60;99.90
9849;DHT22;4963;51.444;6.528;2023-04-30T21:50:20;13.60;99.90
9849;DHT22;4963;51.444;6.528;2023-04-30T21:52:48;13.50;99.90
9849;DHT22;4963;51.444;6.528;2023-04-30T21:55:15;13.50;99.90
9849;DHT22;4963;51.444;6.528;2023-04-30T21:57:42;13.50;99.90
9849;DHT22;4963;51.444;6.528;2023-04-30T22:00:11;13.40;99.90
9849;DHT22;4963;51.444;6.528;2023-04-30T22:02:40;13.40;99.90
9849;DHT22;4963;51.444;6.528;2023-04-30T22:05:07;13.40;99.90
9849;DHT22;4963;51.444;6.528;2023-04-30T22:07:35;13.40;99.90
9849;DHT22;4963;51.444;6.528;2023-04-30T22:10:02;13.30;99.90
9849;DHT22;4963;51.444;6.528;2023-04-30T22:12:30;13.30;99.90
9849;DHT22;4963;51.444;6.528;2023-04-30T22:14:57;13.30;99.90
9849;DHT22;4963;51.444;6.528;2023-04-30T22:17:25;13.20;99.90
9849;DHT22;4963;51.444;6.528;2023-04-30T22:19:54;13.20;99.90
9849;DHT22;4963;51.444;6.528;2023-04-30T22:22:21;13.20;99.90
9849;DHT22;4963;51.444;6.528;2023-04-30T22:24:48;13.10;99.90
9849;DHT22;4963;51.444;6.528;2023-04-30T22:27:15;13.10;99.90
9849;DHT22;4963;51.444;6.528;2023-04-30T22:29:42;13.10;99.90
9849;DHT22;4963;51.444;6.528;2023-04-30T22:32:10;13.10;99.90
9849;DHT22;4963;51.444;6.528;2023-04-30T22:34:38;13.10;99.90
9849;DHT22;4963;51.444;6.528;2023-04-30T22:37:07;13.10;99.90
9849;DHT22;4963;51.444;6.528;2023-04-30T22:39:35;13.10;99.90
9849;DHT22;4963;51.444;6.528;2023-04-30T22:42:03;13.10;99.90
9849;DHT22;4963;51.444;6.528;2023-04-30T22:44:30;13.10;99.90
9849;DHT22;4963;51.444;6.528;2023-04-30T22:46:57;13.10;99.90
9849;DHT22;4963;51.444;6.528;2023-04-30T22:49:25;13.10;99.90
9849;DHT22;4963;51.444;6.528;2023-04-30T22:51:52;13.10;99.90
9849;DHT22;4963;51.444;6.528;2023-04-30T22:54:21;13.10;99.90
9849;DHT22;4963;51.444;6.528;2023-04-30T22:56:48;13.10;99.90
9849;DHT22;4963;51.444;6.528;2023-04-30T22:59:15;13.10;99.90
9849;DHT22;4963;51.444;6.528;2023-04-30T23:01:42;13.00;99.90
9849;DHT22;4963;51.444;6.528;2023-04-30T23:04:08;13.00;99.90
9849;DHT22;4963;51.444;6.528;2023-04-30T23:06:35;13.10;99.90
9849;DHT22;4963;51.444;6.528;2023-04-30T23:09:02;13.10;99.90
9849;DHT22;4963;51.444;6.528;2023-04-30T23:11:30;13.00;99.90
9849;DHT22;4963;51.444;6.528;2023-04-30T23:13:57;13.00;99.90
9849;DHT22;4963;51.444;6.528;2023-04-30T23:16:24;13.10;99.90
9849;DHT22;4963;51.444;6.528;2023-04-30T23:18:51;13.00;99.90
9849;DHT22;4963;51.444;6.528;2023-04-30T23:21:18;13.00;99.90
9849;DHT22;4963;51.444;6.528;2023-04-30T23:23:46;13.00;99.90
9849;DHT22;4963;51.444;6.528;2023-04-30T23:26:13;13.00;99.90
9849;DHT22;4963;51.444;6.528;2023-04-30T23:28:41;12.90;99.90
9849;DHT22;4963;51.444;6.528;2023-04-30T23:31:08;12.90;99.90
9849;DHT22;4963;51.444;6.528;2023-04-30T23:33:34;12.90;99.90
9849;DHT22;4963;51.444;6.528;2023-04-30T23:36:01;13.00;99.90
9849;DHT22;4963;51.444;6.528;2023-04-30T23:38:28;13.00;99.90
9849;DHT22;4963;51.444;6.528;2023-04-30T23:40:55;13.00;99.90
9849;DHT22;4963;51.444;6.528;2023-04-30T23:43:22;13.00;99.90
9849;DHT22;4963;51.444;6.528;2023-04-30T23:45:51;13.00;99.90
9849;DHT22;4963;51.444;6.528;2023-04-30T23:48:17;13.00;99.90
9849;DHT22;4963;51.444;6.528;2023-04-30T23:50:44;13.00;99.90
9849;DHT22;4963;51.444;6.528;2023-04-30T23:53:11;12.90;99.90
9849;DHT22;4963;51.444;6.528;2023-04-30T23:55:39;12.90;99.90
9849;DHT22;4963;51.444;6.528;2023-04-30T23:58:06;13.00;99.90
